sensor_id;sensor_type;location;lat;lon;timestamp;pressure;altitude;pressure_sealevel;temperature;humidity
10881;BME280;5493;48.884;8.338;2023-04-24T00:00:45;99114.28;;;14.02;100.00
10881;BME280;5493;48.884;8.338;2023-04-24T00:03:12;99120.78;;;14.01;100.00
10881;BME280;5493;48.884;8.338;2023-04-24T00:05:39;99115.34;;;14.11;100.00
10881;BME280;5493;48.884;8.338;2023-04-24T00:08:07;99118.63;;;13.98;100.00
10881;BME280;5493;48.884;8.338;2023-04-24T00:10:34;99115.34;;;14.01;100.00
10881;BME280;5493;48.884;8.338;2023-04-24T00:13:00;99104.81;;;13.99;100.00
10881;BME280;5493;48.884;8.338;2023-04-24T00:15:27;99091.53;;;14.13;100.00
10881;BME280;5493;48.884;8.338;2023-04-24T00:17:53;99112.94;;;14.09;100.00
10881;BME280;5493;48.884;8.338;2023-04-24T00:20:20;99094.50;;;14.01;100.00
10881;BME280;5493;48.884;8.338;2023-04-24T00:22:47;99112.94;;;13.99;100.00
10881;BME280;5493;48.884;8.338;2023-04-24T00:25:16;99114.81;;;14.19;100.00
10881;BME280;5493;48.884;8.338;2023-04-24T00:27:42;99133.81;;;14.24;100.00
10881;BME280;5493;48.884;8.338;2023-04-24T00:30:09;99132.72;;;14.15;100.00
10881;BME280;5493;48.884;8.338;2023-04-24T00:32:36;99121.63;;;14.06;100.00
10881;BME280;5493;48.884;8.338;2023-04-24T00:35:03;99125.41;;;14.10;100.00
10881;BME280;5493;48.884;8.338;2023-04-24T00:37:31;99122.97;;;14.09;100.00
10881;BME280;5493;48.884;8.338;2023-04-24T00:39:57;99118.91;;;14.21;100.00
10881;BME280;5493;48.884;8.338;2023-04-24T00:42:25;99114.84;;;14.24;100.00
10881;BME280;5493;48.884;8.338;2023-04-24T00:44:52;99121.88;;;14.15;100.00
10881;BME280;5493;48.884;8.338;2023-04-24T00:47:19;99129.75;;;14.06;100.00
10881;BME280;5493;48.884;8.338;2023-04-24T00:49:47;99114.56;;;14.20;100.00
10881;BME280;5493;48.884;8.338;2023-04-24T00:52:13;99124.88;;;14.13;100.00
10881;BME280;5493;48.884;8.338;2023-04-24T00:54:43;99122.44;;;14.32;100.00
10881;BME280;5493;48.884;8.338;2023-04-24T00:57:09;99115.34;;;14.26;100.00
10881;BME280;5493;48.884;8.338;2023-04-24T00:59:37;99126.47;;;14.14;100.00
10881;BME280;5493;48.884;8.338;2023-04-24T01:02:06;99123.50;;;13.96;100.00
10881;BME280;5493;48.884;8.338;2023-04-24T01:04:34;99111.84;;;13.95;100.00
10881;BME280;5493;48.884;8.338;2023-04-24T01:07:01;99114.56;;;14.10;100.00
10881;BME280;5493;48.884;8.338;2023-04-24T01:09:28;99108.59;;;14.23;100.00
10881;BME280;5493;48.884;8.338;2023-04-24T01:11:54;99114.28;;;14.22;100.00
10881;BME280;5493;48.884;8.338;2023-04-24T01:14:22;99116.19;;;14.06;100.00
10881;BME280;5493;48.884;8.338;2023-04-24T01:16:50;99113.72;;;14.15;100.00
10881;BME280;5493;48.884;8.338;2023-04-24T01:19:18;99104.28;;;14.17;100.00
10881;BME280;5493;48.884;8.338;2023-04-24T01:21:47;99099.66;;;14.13;100.00
10881;BME280;5493;48.884;8.338;2023-04-24T01:24:15;99102.09;;;14.19;100.00
10881;BME280;5493;48.884;8.338;2023-04-24T01:26:41;99106.69;;;13.94;100.00
10881;BME280;5493;48.884;8.338;2023-04-24T01:29:08;99104.81;;;13.99;100.00
10881;BME280;5493;48.884;8.338;2023-04-24T01:31:35;99115.34;;;14.11;100.00
10881;BME280;5493;48.884;8.338;2023-04-24T01:34:02;99114.56;;;14.15;100.00
10881;BME280;5493;48.884;8.338;2023-04-24T01:36:30;99108.59;;;14.13;100.00
10881;BME280;5493;48.884;8.338;2023-04-24T01:38:57;99123.22;;;14.02;100.00
10881;BME280;5493;48.884;8.338;2023-04-24T01:41:25;99121.63;;;14.06;100.00
10881;BME280;5493;48.884;8.338;2023-04-24T01:43:51;99120.53;;;14.02;100.00
10881;BME280;5493;48.884;8.338;2023-04-24T01:46:18;99112.09;;;14.19;100.00
10881;BME280;5493;48.884;8.338;2023-04-24T01:48:45;99115.34;;;14.26;100.00
10881;BME280;5493;48.884;8.338;2023-04-24T01:51:12;99120.75;;;13.86;100.00
10881;BME280;5493;48.884;8.338;2023-04-24T01:53:39;99111.03;;;13.85;100.00
10881;BME280;5493;48.884;8.338;2023-04-24T01:56:05;99111.56;;;13.76;100.00
10881;BME280;5493;48.884;8.338;2023-04-24T01:58:34;99111.03;;;13.95;100.00
10881;BME280;5493;48.884;8.338;2023-04-24T02:01:00;99097.75;;;13.88;100.00
10881;BME280;5493;48.884;8.338;2023-04-24T02:03:27;99102.88;;;13.79;100.00
10881;BME280;5493;48.884;8.338;2023-04-24T02:05:53;99103.97;;;13.78;100.00
10881;BME280;5493;48.884;8.338;2023-04-24T02:08:20;99102.34;;;13.77;100.00
10881;BME280;5493;48.884;8.338;2023-04-24T02:10:46;99093.66;;;13.55;100.00
10881;BME280;5493;48.884;8.338;2023-04-24T02:13:13;99096.59;;;13.44;100.00
10881;BME280;5493;48.884;8.338;2023-04-24T02:15:41;99101.78;;;13.55;100.00
10881;BME280;5493;48.884;8.338;2023-04-24T02:18:07;99096.63;;;13.49;100.00
10881;BME280;5493;48.884;8.338;2023-04-24T02:20:34;99104.41;;;13.35;100.00
10881;BME280;5493;48.884;8.338;2023-04-24T02:23:00;99106.34;;;13.50;100.00
10881;BME280;5493;48.884;8.338;2023-04-24T02:25:27;99106.34;;;13.50;100.00
10881;BME280;5493;48.884;8.338;2023-04-24T02:27:53;99104.97;;;13.42;100.00
10881;BME280;5493;48.884;8.338;2023-04-24T02:30:20;99113.13;;;13.57;100.00
10881;BME280;5493;48.884;8.338;2023-04-24T02:32:48;99114.75;;;13.53;100.00
10881;BME280;5493;48.884;8.338;2023-04-24T02:35:14;99111.72;;;13.29;100.00
10881;BME280;5493;48.884;8.338;2023-04-24T02:37:41;99116.66;;;13.58;100.00
10881;BME280;5493;48.884;8.338;2023-04-24T02:40:08;99117.47;;;13.58;100.00
10881;BME280;5493;48.884;8.338;2023-04-24T02:42:35;99117.19;;;13.55;100.00
10881;BME280;5493;48.884;8.338;2023-04-24T02:45:02;99106.91;;;13.62;100.00
10881;BME280;5493;48.884;8.338;2023-04-24T02:47:28;99107.72;;;13.52;100.00
10881;BME280;5493;48.884;8.338;2023-04-24T02:49:56;99138.88;;;13.55;100.00
10881;BME280;5493;48.884;8.338;2023-04-24T02:52:23;99142.69;;;13.69;100.00
10881;BME280;5493;48.884;8.338;2023-04-24T02:54:49;99142.69;;;13.69;100.00
10881;BME280;5493;48.884;8.338;2023-04-24T02:57:16;99154.03;;;13.56;100.00
10881;BME280;5493;48.884;8.338;2023-04-24T02:59:42;99161.63;;;13.64;100.00
10881;BME280;5493;48.884;8.338;2023-04-24T03:02:09;99174.88;;;13.55;100.00
10881;BME280;5493;48.884;8.338;2023-04-24T03:04:35;99177.91;;;13.69;100.00
10881;BME280;5493;48.884;8.338;2023-04-24T03:07:03;99190.81;;;13.42;100.00
10881;BME280;5493;48.884;8.338;2023-04-24T03:09:30;99212.38;;;13.21;100.00
10881;BME280;5493;48.884;8.338;2023-04-24T03:11:57;99209.47;;;12.91;100.00
10881;BME280;5493;48.884;8.338;2023-04-24T03:14:23;99216.72;;;12.86;100.00
10881;BME280;5493;48.884;8.338;2023-04-24T03:16:50;99221.00;;;12.76;100.00
10881;BME280;5493;48.884;8.338;2023-04-24T03:19:16;99233.66;;;12.12;100.00
10881;BME280;5493;48.884;8.338;2023-04-24T03:21:43;99225.69;;;12.22;100.00
10881;BME280;5493;48.884;8.338;2023-04-24T03:24:11;99232.59;;;12.13;100.00
10881;BME280;5493;48.884;8.338;2023-04-24T03:26:38;99239.28;;;12.06;100.00
10881;BME280;5493;48.884;8.338;2023-04-24T03:29:04;99246.56;;;12.05;100.00
10881;BME280;5493;48.884;8.338;2023-04-24T03:31:31;99255.75;;;12.04;100.00
10881;BME280;5493;48.884;8.338;2023-04-24T03:33:57;99255.78;;;12.09;100.00
10881;BME280;5493;48.884;8.338;2023-04-24T03:36:24;99266.16;;;12.17;100.00
10881;BME280;5493;48.884;8.338;2023-04-24T03:38:51;99273.03;;;12.30;100.00
10881;BME280;5493;48.884;8.338;2023-04-24T03:41:19;99268.19;;;12.32;100.00
10881;BME280;5493;48.884;8.338;2023-04-24T03:43:45;99271.72;;;12.32;100.00
10881;BME280;5493;48.884;8.338;2023-04-24T03:46:12;99285.50;;;12.09;100.00
10881;BME280;5493;48.884;8.338;2023-04-24T03:48:39;99283.69;;;12.15;100.00
10881;BME280;5493;48.884;8.338;2023-04-24T03:51:05;99283.03;;;12.03;100.00
10881;BME280;5493;48.884;8.338;2023-04-24T03:53:32;99283.22;;;11.74;100.00
10881;BME280;5493;48.884;8.338;2023-04-24T03:55:58;99289.50;;;11.80;100.00
10881;BME280;5493;48.884;8.338;2023-04-24T03:58:26;99290.13;;;11.87;100.00
10881;BME280;5493;48.884;8.338;2023-04-24T04:00:53;99279.88;;;11.67;100.00
10881;BME280;5493;48.884;8.338;2023-04-24T04:03:22;99278.75;;;11.63;100.00
10881;BME280;5493;48.884;8.338;2023-04-24T04:05:48;99277.38;;;11.61;100.00
10881;BME280;5493;48.884;8.338;2023-04-24T04:08:15;99286.16;;;11.73;100.00
10881;BME280;5493;48.884;8.338;2023-04-24T04:10:41;99292.25;;;11.63;100.00
10881;BME280;5493;48.884;8.338;2023-04-24T04:13:08;99292.75;;;11.60;100.00
10881;BME280;5493;48.884;8.338;2023-04-24T04:15:36;99293.81;;;11.59;100.00
10881;BME280;5493;48.884;8.338;2023-04-24T04:18:03;99293.50;;;11.56;100.00
10881;BME280;5493;48.884;8.338;2023-04-24T04:20:29;99298.94;;;11.39;100.00
10881;BME280;5493;48.884;8.338;2023-04-24T04:22:56;99296.69;;;11.53;100.00
10881;BME280;5493;48.884;8.338;2023-04-24T04:25:22;99305.44;;;11.43;100.00
10881;BME280;5493;48.884;8.338;2023-04-24T04:27:49;99305.63;;;11.36;100.00
10881;BME280;5493;48.884;8.338;2023-04-24T04:30:16;99307.50;;;11.36;100.00
10881;BME280;5493;48.884;8.338;2023-04-24T04:32:44;99300.59;;;11.23;100.00
10881;BME280;5493;48.884;8.338;2023-04-24T04:35:11;99308.94;;;11.22;100.00
10881;BME280;5493;48.884;8.338;2023-04-24T04:37:37;99308.84;;;11.33;100.00
10881;BME280;5493;48.884;8.338;2023-04-24T04:40:06;99309.00;;;11.27;100.00
10881;BME280;5493;48.884;8.338;2023-04-24T04:42:36;99306.09;;;11.12;100.00
10881;BME280;5493;48.884;8.338;2023-04-24T04:45:06;99320.22;;;11.19;100.00
10881;BME280;5493;48.884;8.338;2023-04-24T04:47:34;99318.59;;;11.01;100.00
10881;BME280;5493;48.884;8.338;2023-04-24T04:50:02;99323.66;;;11.14;100.00
10881;BME280;5493;48.884;8.338;2023-04-24T04:52:29;99329.03;;;11.14;100.00
10881;BME280;5493;48.884;8.338;2023-04-24T04:54:55;99331.19;;;11.12;100.00
10881;BME280;5493;48.884;8.338;2023-04-24T04:57:22;99342.22;;;11.27;100.00
10881;BME280;5493;48.884;8.338;2023-04-24T04:59:48;99334.44;;;11.14;100.00
10881;BME280;5493;48.884;8.338;2023-04-24T05:02:15;99330.41;;;11.33;100.00
10881;BME280;5493;48.884;8.338;2023-04-24T05:04:41;99333.72;;;11.35;100.00
10881;BME280;5493;48.884;8.338;2023-04-24T05:07:09;99338.09;;;11.42;100.00
10881;BME280;5493;48.884;8.338;2023-04-24T05:09:36;99343.09;;;11.50;100.00
10881;BME280;5493;48.884;8.338;2023-04-24T05:12:03;99348.03;;;11.58;100.00
10881;BME280;5493;48.884;8.338;2023-04-24T05:14:29;99352.66;;;11.41;100.00
10881;BME280;5493;48.884;8.338;2023-04-24T05:16:56;99347.59;;;11.66;100.00
10881;BME280;5493;48.884;8.338;2023-04-24T05:19:22;99353.59;;;11.68;100.00
10881;BME280;5493;48.884;8.338;2023-04-24T05:21:49;99357.66;;;11.70;100.00
10881;BME280;5493;48.884;8.338;2023-04-24T05:24:16;99359.06;;;11.73;100.00
10881;BME280;5493;48.884;8.338;2023-04-24T05:26:43;99357.19;;;11.73;100.00
10881;BME280;5493;48.884;8.338;2023-04-24T05:29:09;99369.47;;;11.81;100.00
10881;BME280;5493;48.884;8.338;2023-04-24T05:31:37;99360.56;;;11.64;100.00
10881;BME280;5493;48.884;8.338;2023-04-24T05:34:03;99380.38;;;11.91;100.00
10881;BME280;5493;48.884;8.338;2023-04-24T05:36:30;99381.00;;;11.76;100.00
10881;BME280;5493;48.884;8.338;2023-04-24T05:38:57;99388.47;;;11.53;100.00
10881;BME280;5493;48.884;8.338;2023-04-24T05:41:24;99393.22;;;11.79;100.00
10881;BME280;5493;48.884;8.338;2023-04-24T05:43:51;99387.38;;;11.70;100.00
10881;BME280;5493;48.884;8.338;2023-04-24T05:46:17;99388.69;;;11.68;100.00
10881;BME280;5493;48.884;8.338;2023-04-24T05:48:44;99389.06;;;11.71;100.00
10881;BME280;5493;48.884;8.338;2023-04-24T05:51:10;99393.34;;;11.72;100.00
10881;BME280;5493;48.884;8.338;2023-04-24T05:53:37;99392.44;;;11.83;100.00
10881;BME280;5493;48.884;8.338;2023-04-24T05:56:04;99399.38;;;11.96;100.00
10881;BME280;5493;48.884;8.338;2023-04-24T05:58:32;99399.91;;;11.76;100.00
10881;BME280;5493;48.884;8.338;2023-04-24T06:00:58;99406.94;;;11.77;100.00
10881;BME280;5493;48.884;8.338;2023-04-24T06:03:26;99397.59;;;11.85;100.00
10881;BME280;5493;48.884;8.338;2023-04-24T06:05:53;99397.41;;;11.92;100.00
10881;BME280;5493;48.884;8.338;2023-04-24T06:08:19;99403.88;;;11.91;100.00
10881;BME280;5493;48.884;8.338;2023-04-24T06:10:46;99392.59;;;11.94;100.00
10881;BME280;5493;48.884;8.338;2023-04-24T06:13:12;99402.44;;;12.05;100.00
10881;BME280;5493;48.884;8.338;2023-04-24T06:15:41;99410.38;;;11.73;100.00
10881;BME280;5493;48.884;8.338;2023-04-24T06:18:07;99410.78;;;11.81;100.00
10881;BME280;5493;48.884;8.338;2023-04-24T06:20:35;99411.66;;;11.87;100.00
10881;BME280;5493;48.884;8.338;2023-04-24T06:23:02;99414.16;;;12.10;100.00
10881;BME280;5493;48.884;8.338;2023-04-24T06:25:28;99414.91;;;12.27;100.00
10881;BME280;5493;48.884;8.338;2023-04-24T06:27:55;99410.59;;;12.53;100.00
10881;BME280;5493;48.884;8.338;2023-04-24T06:30:22;99421.13;;;12.50;100.00
10881;BME280;5493;48.884;8.338;2023-04-24T06:32:50;99425.34;;;12.41;100.00
10881;BME280;5493;48.884;8.338;2023-04-24T06:35:17;99429.63;;;12.37;100.00
10881;BME280;5493;48.884;8.338;2023-04-24T06:37:43;99424.13;;;12.53;100.00
10881;BME280;5493;48.884;8.338;2023-04-24T06:40:10;99433.31;;;12.52;100.00
10881;BME280;5493;48.884;8.338;2023-04-24T06:42:37;99425.47;;;12.29;100.00
10881;BME280;5493;48.884;8.338;2023-04-24T06:45:04;99442.88;;;12.38;100.00
10881;BME280;5493;48.884;8.338;2023-04-24T06:47:31;99432.13;;;12.21;100.00
10881;BME280;5493;48.884;8.338;2023-04-24T06:49:59;99441.50;;;12.36;100.00
10881;BME280;5493;48.884;8.338;2023-04-24T06:52:28;99444.13;;;12.30;100.00
10881;BME280;5493;48.884;8.338;2023-04-24T06:55:00;99435.97;;;12.47;100.00
10881;BME280;5493;48.884;8.338;2023-04-24T06:57:27;99448.22;;;12.55;100.00
10881;BME280;5493;48.884;8.338;2023-04-24T06:59:53;99432.00;;;12.33;100.00
10881;BME280;5493;48.884;8.338;2023-04-24T07:02:20;99443.13;;;12.58;100.00
10881;BME280;5493;48.884;8.338;2023-04-24T07:04:46;99437.41;;;13.08;100.00
10881;BME280;5493;48.884;8.338;2023-04-24T07:07:15;99429.16;;;12.93;100.00
10881;BME280;5493;48.884;8.338;2023-04-24T07:09:42;99439.22;;;13.56;100.00
10881;BME280;5493;48.884;8.338;2023-04-24T07:12:09;99440.97;;;13.41;100.00
10881;BME280;5493;48.884;8.338;2023-04-24T07:14:36;99442.00;;;14.13;100.00
10881;BME280;5493;48.884;8.338;2023-04-24T07:17:03;99440.00;;;14.41;100.00
10881;BME280;5493;48.884;8.338;2023-04-24T07:19:29;99440.91;;;13.67;100.00
10881;BME280;5493;48.884;8.338;2023-04-24T07:21:56;99442.63;;;13.42;100.00
10881;BME280;5493;48.884;8.338;2023-04-24T07:24:24;99442.34;;;14.27;100.00
10881;BME280;5493;48.884;8.338;2023-04-24T07:26:52;99447.69;;;14.12;100.00
10881;BME280;5493;48.884;8.338;2023-04-24T07:29:19;99446.38;;;14.19;100.00
10881;BME280;5493;48.884;8.338;2023-04-24T07:31:46;99440.34;;;13.65;100.00
10881;BME280;5493;48.884;8.338;2023-04-24T07:34:12;99455.06;;;13.43;100.00
10881;BME280;5493;48.884;8.338;2023-04-24T07:36:40;99459.34;;;14.12;100.00
10881;BME280;5493;48.884;8.338;2023-04-24T07:39:07;99446.47;;;13.88;100.00
10881;BME280;5493;48.884;8.338;2023-04-24T07:41:35;99457.44;;;13.71;100.00
10881;BME280;5493;48.884;8.338;2023-04-24T07:44:02;99453.69;;;13.40;100.00
10881;BME280;5493;48.884;8.338;2023-04-24T07:46:29;99449.03;;;13.30;100.00
10881;BME280;5493;48.884;8.338;2023-04-24T07:48:56;99465.38;;;13.46;100.00
10881;BME280;5493;48.884;8.338;2023-04-24T07:51:24;99478.72;;;12.99;100.00
10881;BME280;5493;48.884;8.338;2023-04-24T07:53:52;99483.56;;;12.97;100.00
10881;BME280;5493;48.884;8.338;2023-04-24T07:56:19;99485.44;;;13.18;100.00
10881;BME280;5493;48.884;8.338;2023-04-24T07:58:47;99493.94;;;13.26;100.00
10881;BME280;5493;48.884;8.338;2023-04-24T08:01:14;99493.47;;;12.86;100.00
10881;BME280;5493;48.884;8.338;2023-04-24T08:03:40;99494.16;;;12.98;100.00
10881;BME280;5493;48.884;8.338;2023-04-24T08:06:07;99502.44;;;12.92;100.00
10881;BME280;5493;48.884;8.338;2023-04-24T08:08:33;99488.69;;;12.71;100.00
10881;BME280;5493;48.884;8.338;2023-04-24T08:11:00;99495.03;;;12.82;100.00
10881;BME280;5493;48.884;8.338;2023-04-24T08:13:26;99499.75;;;12.70;100.00
10881;BME280;5493;48.884;8.338;2023-04-24T08:15:55;99501.72;;;12.53;100.00
10881;BME280;5493;48.884;8.338;2023-04-24T08:18:22;99520.13;;;12.77;100.00
10881;BME280;5493;48.884;8.338;2023-04-24T08:20:49;99511.28;;;12.60;100.00
10881;BME280;5493;48.884;8.338;2023-04-24T08:23:15;99524.22;;;13.02;100.00
10881;BME280;5493;48.884;8.338;2023-04-24T08:25:42;99529.63;;;13.02;100.00
10881;BME280;5493;48.884;8.338;2023-04-24T08:28:08;99535.66;;;13.09;100.00
10881;BME280;5493;48.884;8.338;2023-04-24T08:30:35;99545.88;;;12.80;100.00
10881;BME280;5493;48.884;8.338;2023-04-24T08:33:04;99544.16;;;12.74;100.00
10881;BME280;5493;48.884;8.338;2023-04-24T08:35:31;99547.03;;;12.84;100.00
10881;BME280;5493;48.884;8.338;2023-04-24T08:37:58;99548.28;;;12.76;100.00
10881;BME280;5493;48.884;8.338;2023-04-24T08:40:28;99550.47;;;12.79;100.00
10881;BME280;5493;48.884;8.338;2023-04-24T08:42:55;99549.03;;;12.33;100.00
10881;BME280;5493;48.884;8.338;2023-04-24T08:45:23;99552.41;;;12.41;100.00
10881;BME280;5493;48.884;8.338;2023-04-24T08:47:50;99540.16;;;12.98;100.00
10881;BME280;5493;48.884;8.338;2023-04-24T08:50:20;99548.50;;;14.09;100.00
10881;BME280;5493;48.884;8.338;2023-04-24T08:52:47;99537.66;;;14.46;100.00
10881;BME280;5493;48.884;8.338;2023-04-24T08:55:15;99539.56;;;14.45;100.00
10881;BME280;5493;48.884;8.338;2023-04-24T08:57:44;99540.41;;;15.28;100.00
10881;BME280;5493;48.884;8.338;2023-04-24T09:00:12;99524.22;;;14.71;100.00
10881;BME280;5493;48.884;8.338;2023-04-24T09:02:42;99545.66;;;14.72;100.00
10881;BME280;5493;48.884;8.338;2023-04-24T09:05:09;99553.50;;;14.27;100.00
10881;BME280;5493;48.884;8.338;2023-04-24T09:07:39;99564.59;;;14.57;100.00
10881;BME280;5493;48.884;8.338;2023-04-24T09:10:06;99566.03;;;14.33;100.00
10881;BME280;5493;48.884;8.338;2023-04-24T09:12:34;99555.56;;;14.10;100.00
10881;BME280;5493;48.884;8.338;2023-04-24T09:15:02;99572.69;;;14.15;100.00
10881;BME280;5493;48.884;8.338;2023-04-24T09:17:30;99572.44;;;14.17;100.00
10881;BME280;5493;48.884;8.338;2023-04-24T09:19:56;99565.69;;;13.88;100.00
10881;BME280;5493;48.884;8.338;2023-04-24T09:22:23;99576.81;;;13.59;100.00
10881;BME280;5493;48.884;8.338;2023-04-24T09:25:02;99574.38;;;13.31;100.00
10881;BME280;5493;48.884;8.338;2023-04-24T09:27:30;99573.56;;;13.30;100.00
10881;BME280;5493;48.884;8.338;2023-04-24T09:29:58;99586.47;;;13.23;100.00
10881;BME280;5493;48.884;8.338;2023-04-24T09:32:24;99590.19;;;13.17;100.00
10881;BME280;5493;48.884;8.338;2023-04-24T09:35:05;99595.72;;;13.06;100.00
10881;BME280;5493;48.884;8.338;2023-04-24T09:37:35;99590.31;;;13.06;100.00
10881;BME280;5493;48.884;8.338;2023-04-24T09:40:11;99600.06;;;13.55;100.00
10881;BME280;5493;48.884;8.338;2023-04-24T09:42:38;99608.91;;;13.24;100.00
10881;BME280;5493;48.884;8.338;2023-04-24T09:45:08;99599.84;;;13.35;100.00
10881;BME280;5493;48.884;8.338;2023-04-24T09:47:36;99590.31;;;13.27;100.00
10881;BME280;5493;48.884;8.338;2023-04-24T09:50:09;99611.91;;;13.22;100.00
10881;BME280;5493;48.884;8.338;2023-04-24T09:52:40;99586.50;;;12.85;100.00
10881;BME280;5493;48.884;8.338;2023-04-24T09:55:16;99610.19;;;12.95;100.00
10881;BME280;5493;48.884;8.338;2023-04-24T09:57:54;99621.03;;;12.78;100.00
10881;BME280;5493;48.884;8.338;2023-04-24T10:00:25;99620.81;;;12.79;100.00
10881;BME280;5493;48.884;8.338;2023-04-24T10:02:56;99623.94;;;12.71;100.00
10881;BME280;5493;48.884;8.338;2023-04-24T10:05:24;99631.25;;;12.93;100.00
10881;BME280;5493;48.884;8.338;2023-04-24T10:07:51;99623.88;;;12.50;100.00
10881;BME280;5493;48.884;8.338;2023-04-24T10:10:19;99622.78;;;12.67;100.00
10881;BME280;5493;48.884;8.338;2023-04-24T10:12:46;99635.66;;;12.99;100.00
10881;BME280;5493;48.884;8.338;2023-04-24T10:15:14;99623.75;;;12.78;100.00
10881;BME280;5493;48.884;8.338;2023-04-24T10:17:46;99629.50;;;13.03;100.00
10881;BME280;5493;48.884;8.338;2023-04-24T10:20:18;99628.72;;;12.86;100.00
10881;BME280;5493;48.884;8.338;2023-04-24T10:22:45;99632.75;;;12.83;100.00
10881;BME280;5493;48.884;8.338;2023-04-24T10:25:16;99635.53;;;12.89;100.00
10881;BME280;5493;48.884;8.338;2023-04-24T10:27:44;99632.53;;;13.28;100.00
10881;BME280;5493;48.884;8.338;2023-04-24T10:30:12;99642.16;;;13.41;100.00
10881;BME280;5493;48.884;8.338;2023-04-24T10:32:39;99640.91;;;13.49;100.00
10881;BME280;5493;48.884;8.338;2023-04-24T10:35:06;99642.03;;;13.79;100.00
10881;BME280;5493;48.884;8.338;2023-04-24T10:37:35;99646.16;;;13.60;100.00
10881;BME280;5493;48.884;8.338;2023-04-24T10:40:04;99629.56;;;13.08;100.00
10881;BME280;5493;48.884;8.338;2023-04-24T10:42:31;99649.03;;;13.49;100.00
10881;BME280;5493;48.884;8.338;2023-04-24T10:44:59;99639.50;;;13.46;100.00
10881;BME280;5493;48.884;8.338;2023-04-24T10:47:27;99640.47;;;13.13;100.00
10881;BME280;5493;48.884;8.338;2023-04-24T10:49:53;99655.91;;;13.13;100.00
10881;BME280;5493;48.884;8.338;2023-04-24T10:52:43;99641.50;;;12.91;100.00
10881;BME280;5493;48.884;8.338;2023-04-24T10:55:12;99648.69;;;13.02;100.00
10881;BME280;5493;48.884;8.338;2023-04-24T10:57:39;99649.28;;;13.47;100.00
10881;BME280;5493;48.884;8.338;2023-04-24T11:00:19;99652.69;;;13.38;100.00
10881;BME280;5493;48.884;8.338;2023-04-24T11:02:47;99649.88;;;12.89;100.00
10881;BME280;5493;48.884;8.338;2023-04-24T11:05:18;99650.72;;;13.33;100.00
10881;BME280;5493;48.884;8.338;2023-04-24T11:08:10;99658.69;;;13.01;100.00
10881;BME280;5493;48.884;8.338;2023-04-24T11:10:43;99636.19;;;13.17;100.00
10881;BME280;5493;48.884;8.338;2023-04-24T11:13:10;99644.31;;;13.17;100.00
10881;BME280;5493;48.884;8.338;2023-04-24T11:15:41;99653.38;;;13.28;100.00
10881;BME280;5493;48.884;8.338;2023-04-24T11:18:11;99657.22;;;13.32;100.00
10881;BME280;5493;48.884;8.338;2023-04-24T11:20:42;99653.75;;;13.37;100.00
10881;BME280;5493;48.884;8.338;2023-04-24T11:23:08;99679.19;;;13.36;100.00
10881;BME280;5493;48.884;8.338;2023-04-24T11:25:35;99695.69;;;13.12;100.00
10881;BME280;5493;48.884;8.338;2023-04-24T11:28:05;99697.13;;;12.65;100.00
10881;BME280;5493;48.884;8.338;2023-04-24T11:30:33;99697.88;;;12.27;100.00
10881;BME280;5493;48.884;8.338;2023-04-24T11:33:03;99710.41;;;12.33;100.00
10881;BME280;5493;48.884;8.338;2023-04-24T11:35:35;99712.13;;;12.22;100.00
10881;BME280;5493;48.884;8.338;2023-04-24T11:38:02;99715.41;;;12.41;100.00
10881;BME280;5493;48.884;8.338;2023-04-24T11:40:30;99718.63;;;12.55;100.00
10881;BME280;5493;48.884;8.338;2023-04-24T11:42:59;99715.00;;;12.32;100.00
10881;BME280;5493;48.884;8.338;2023-04-24T11:45:27;99710.72;;;12.70;100.00
10881;BME280;5493;48.884;8.338;2023-04-24T11:47:53;99712.69;;;12.74;100.00
10881;BME280;5493;48.884;8.338;2023-04-24T11:50:23;99709.63;;;13.04;100.00
10881;BME280;5493;48.884;8.338;2023-04-24T11:52:51;99702.41;;;12.93;100.00
10881;BME280;5493;48.884;8.338;2023-04-24T11:55:28;99710.84;;;13.13;100.00
10881;BME280;5493;48.884;8.338;2023-04-24T11:57:56;99710.69;;;13.20;100.00
10881;BME280;5493;48.884;8.338;2023-04-24T12:00:25;99716.25;;;13.13;100.00
10881;BME280;5493;48.884;8.338;2023-04-24T12:03:05;99716.28;;;12.97;100.00
10881;BME280;5493;48.884;8.338;2023-04-24T12:05:33;99730.81;;;12.91;100.00
10881;BME280;5493;48.884;8.338;2023-04-24T12:08:00;99722.56;;;13.19;100.00
10881;BME280;5493;48.884;8.338;2023-04-24T12:10:28;99714.97;;;13.16;100.00
10881;BME280;5493;48.884;8.338;2023-04-24T12:12:56;99710.31;;;13.33;100.00
10881;BME280;5493;48.884;8.338;2023-04-24T12:15:23;99707.78;;;13.26;100.00
10881;BME280;5493;48.884;8.338;2023-04-24T12:17:51;99712.78;;;13.56;100.00
10881;BME280;5493;48.884;8.338;2023-04-24T12:20:24;99711.38;;;13.54;100.00
10881;BME280;5493;48.884;8.338;2023-04-24T12:22:53;99718.13;;;13.51;100.00
10881;BME280;5493;48.884;8.338;2023-04-24T12:25:21;99713.53;;;13.30;100.00
10881;BME280;5493;48.884;8.338;2023-04-24T12:27:52;99707.91;;;13.58;100.00
10881;BME280;5493;48.884;8.338;2023-04-24T12:30:20;99705.81;;;13.65;100.00
10881;BME280;5493;48.884;8.338;2023-04-24T12:32:48;99715.16;;;13.74;100.00
10881;BME280;5493;48.884;8.338;2023-04-24T12:35:19;99696.47;;;14.05;100.00
10881;BME280;5493;48.884;8.338;2023-04-24T12:37:46;99692.81;;;14.48;100.00
10881;BME280;5493;48.884;8.338;2023-04-24T12:40:14;99708.66;;;14.61;100.00
10881;BME280;5493;48.884;8.338;2023-04-24T12:42:42;99711.13;;;15.04;100.00
10881;BME280;5493;48.884;8.338;2023-04-24T12:45:09;99693.81;;;15.20;100.00
10881;BME280;5493;48.884;8.338;2023-04-24T12:47:37;99697.91;;;14.76;100.00
10881;BME280;5493;48.884;8.338;2023-04-24T12:50:06;99706.28;;;14.69;100.00
10881;BME280;5493;48.884;8.338;2023-04-24T12:52:32;99696.00;;;14.71;100.00
10881;BME280;5493;48.884;8.338;2023-04-24T12:55:00;99714.09;;;14.61;100.00
10881;BME280;5493;48.884;8.338;2023-04-24T12:57:29;99710.09;;;14.68;100.00
10881;BME280;5493;48.884;8.338;2023-04-24T12:59:57;99708.72;;;14.34;100.00
10881;BME280;5493;48.884;8.338;2023-04-24T13:02:24;99705.75;;;14.36;100.00